Time;durP1;ratioP1;P1;durP2;ratioP2;P2;SDS_P1;SDS_P2;PMS_P1;PMS_P2;Temp;Humidity;BMP_temperature;BMP_pressure;BME280_temperature;BME280_humidity;BME280_pressure;Samples;Min_cycle;Max_cycle;Signal;HPM_P1;HPM_P2
2022/01/07 00:00:45;;;;;;;2.12;1.92;;;;;;;10.82;34.96;98774.70;1804555;79;21192;-62
2022/01/07 00:03:11;;;;;;;2.72;1.92;;;;;;;10.81;34.97;98771.71;1794966;78;21531;-63
2022/01/07 00:05:38;;;;;;;2.27;1.95;;;;;;;10.82;34.93;98782.15;1805942;79;21026;-62
2022/01/07 00:08:06;;;;;;;1.92;1.60;;;;;;;10.78;34.81;98776.91;1795125;79;20987;-61
2022/01/07 00:10:33;;;;;;;2.62;2.00;;;;;;;10.75;34.78;98782.59;1798669;78;20978;-62
2022/01/07 00:13:00;;;;;;;2.10;1.90;;;;;;;10.69;34.76;98778.55;1795299;78;21543;-61
2022/01/07 00:15:27;;;;;;;2.42;1.80;;;;;;;10.73;34.69;98794.44;1809022;79;20887;-63
2022/01/07 00:17:55;;;;;;;1.87;1.50;;;;;;;10.66;34.48;98786.89;1798880;78;21418;-61
2022/01/07 00:20:21;;;;;;;2.25;1.65;;;;;;;10.58;34.67;98793.16;1793971;79;20997;-64
2022/01/07 00:22:49;;;;;;;2.25;1.65;;;;;;;10.53;34.75;98804.86;1797491;78;36135;-63
2022/01/07 00:25:15;;;;;;;1.77;1.67;;;;;;;10.52;34.59;98796.05;1796089;78;21217;-63
2022/01/07 00:27:41;;;;;;;2.72;1.67;;;;;;;10.49;34.70;98814.20;1794246;78;21039;-61
2022/01/07 00:30:10;;;;;;;2.92;2.05;;;;;;;10.50;34.75;98817.19;1794397;78;21049;-62
2022/01/07 00:32:37;;;;;;;2.40;1.60;;;;;;;10.50;34.81;98818.52;1798646;78;22375;-62
2022/01/07 00:35:05;;;;;;;2.35;1.80;;;;;;;10.48;34.83;98816.56;1805344;78;21560;-64
2022/01/07 00:37:32;;;;;;;3.05;1.60;;;;;;;10.42;34.95;98816.80;1808711;78;21341;-60
2022/01/07 00:39:58;;;;;;;2.37;1.62;;;;;;;10.43;35.02;98817.09;1802418;79;20923;-62
2022/01/07 00:42:24;;;;;;;1.98;1.75;;;;;;;10.46;35.02;98820.72;1795774;78;20979;-63
2022/01/07 00:44:51;;;;;;;2.83;1.77;;;;;;;10.48;34.98;98831.19;1808047;78;20995;-61
2022/01/07 00:47:18;;;;;;;2.47;1.87;;;;;;;10.48;35.07;98829.86;1742573;82;21564;-60
2022/01/07 00:49:44;;;;;;;3.02;1.90;;;;;;;10.50;35.15;98833.98;1799666;78;21141;-63
2022/01/07 00:52:10;;;;;;;2.65;1.65;;;;;;;10.56;35.17;98828.39;1790716;79;20952;-60
2022/01/07 00:54:37;;;;;;;2.27;1.67;;;;;;;10.59;35.19;98828.03;1798600;79;21500;-62
2022/01/07 00:57:04;;;;;;;2.27;1.85;;;;;;;10.60;35.26;98833.68;1791738;79;20911;-62
2022/01/07 00:59:31;;;;;;;2.47;1.90;;;;;;;10.61;35.25;98834.52;1798537;79;20992;-62
2022/01/07 01:01:57;;;;;;;1.85;1.62;;;;;;;10.64;35.27;98837.61;1794839;79;21138;-63
2022/01/07 01:04:23;;;;;;;2.22;1.82;;;;;;;10.67;35.31;98824.44;1799767;79;20967;-62
2022/01/07 01:06:50;;;;;;;3.40;2.20;;;;;;;10.65;35.25;98829.95;1795994;79;20975;-62
2022/01/07 01:09:16;;;;;;;3.02;2.20;;;;;;;10.59;35.25;98832.52;1793534;79;21634;-61
2022/01/07 01:11:43;;;;;;;2.90;1.70;;;;;;;10.58;35.37;98832.22;1788864;79;21588;-63
2022/01/07 01:14:09;;;;;;;2.98;2.42;;;;;;;10.56;35.40;98835.05;1793674;79;21131;-61
2022/01/07 01:16:36;;;;;;;2.10;1.82;;;;;;;10.51;35.47;98842.76;1787789;79;21496;-61
2022/01/07 01:19:05;;;;;;;1.92;1.72;;;;;;;10.46;35.60;98850.47;1737240;82;21493;-63
2022/01/07 01:21:33;;;;;;;2.22;1.70;;;;;;;10.39;35.77;98857.04;1751359;79;21507;-61
2022/01/07 01:24:00;;;;;;;2.58;1.82;;;;;;;10.40;35.86;98863.19;1752191;81;21060;-63
2022/01/07 01:26:26;;;;;;;2.10;1.70;;;;;;;10.41;35.98;98855.52;1738838;81;21142;-61
2022/01/07 01:28:52;;;;;;;1.98;1.75;;;;;;;10.34;36.18;98869.23;1743242;81;20843;-62
2022/01/07 01:31:19;;;;;;;2.58;1.92;;;;;;;10.32;36.33;98867.27;1743571;81;20908;-62
2022/01/07 01:33:46;;;;;;;3.33;2.00;;;;;;;10.31;36.51;98885.05;1785806;79;20978;-63
2022/01/07 01:36:14;;;;;;;3.62;2.10;;;;;;;10.32;36.68;98881.39;1788487;79;20924;-63
2022/01/07 01:38:41;;;;;;;3.35;1.90;;;;;;;10.37;36.84;98884.33;1791855;79;21128;-61
2022/01/07 01:41:07;;;;;;;3.02;2.10;;;;;;;10.40;37.04;98894.56;1796809;79;20928;-63
2022/01/07 01:43:35;;;;;;;2.92;1.82;;;;;;;10.45;37.36;98900.16;1782581;79;20979;-61
2022/01/07 01:46:01;;;;;;;2.60;1.98;;;;;;;10.48;38.54;98905.64;1791974;79;21445;-62
2022/01/07 01:48:27;;;;;;;4.08;2.22;;;;;;;10.54;39.25;98903.06;1799464;79;20875;-64
2022/01/07 01:50:57;;;;;;;3.05;2.20;;;;;;;10.57;39.66;98913.84;1793825;79;21126;-62
2022/01/07 01:53:25;;;;;;;2.67;1.70;;;;;;;10.60;39.92;98918.80;1753355;80;21470;-61
2022/01/07 01:55:53;;;;;;;2.50;2.30;;;;;;;10.65;40.02;98925.72;1753878;81;20963;-62
2022/01/07 01:58:19;;;;;;;3.17;2.30;;;;;;;10.64;40.19;98925.38;1729523;81;21565;-62
2022/01/07 02:00:47;;;;;;;4.05;2.12;;;;;;;10.61;40.38;98916.97;1756843;81;21520;-61
2022/01/07 02:03:13;;;;;;;2.55;2.10;;;;;;;10.61;39.86;98927.08;1750226;81;21104;-62
2022/01/07 02:05:39;;;;;;;1.90;1.72;;;;;;;10.64;39.81;98944.53;1745532;81;20938;-63
2022/01/07 02:08:07;;;;;;;3.27;2.20;;;;;;;10.64;39.26;98939.22;1727576;81;20940;-61
2022/01/07 02:10:33;;;;;;;2.83;2.17;;;;;;;10.64;39.10;98953.31;1711641;81;20895;-62
2022/01/07 02:13:00;;;;;;;2.67;2.15;;;;;;;10.68;39.10;98951.13;1746783;81;21022;-62
2022/01/07 02:15:26;;;;;;;3.77;2.25;;;;;;;10.68;40.34;98946.64;1739228;81;21144;-62
2022/01/07 02:17:54;;;;;;;2.92;2.12;;;;;;;10.67;39.22;98956.11;1786792;79;20899;-62
2022/01/07 02:20:22;;;;;;;2.90;2.40;;;;;;;10.58;40.41;98966.04;1794451;79;21562;-62
2022/01/07 02:22:48;;;;;;;2.45;2.08;;;;;;;10.74;44.50;98967.70;1778100;79;21536;-61
2022/01/07 02:25:15;;;;;;;2.33;2.12;;;;;;;10.86;46.19;98971.03;1792820;79;20935;-61
2022/01/07 02:27:43;;;;;;;2.90;2.37;;;;;;;11.02;45.41;98975.34;1780812;79;21187;-61
2022/01/07 02:30:14;;;;;;;2.83;2.45;;;;;;;10.98;43.73;98976.20;1752720;80;20928;-62
2022/01/07 02:32:41;;;;;;;3.62;2.45;;;;;;;10.97;42.56;98978.56;1751037;79;21070;-62
2022/01/07 02:35:09;;;;;;;3.02;2.50;;;;;;;10.95;41.73;98983.22;1728066;81;21059;-61
2022/01/07 02:37:37;;;;;;;2.50;2.30;;;;;;;10.93;41.04;98986.58;1764807;81;20944;-63
2022/01/07 02:40:06;;;;;;;3.62;2.22;;;;;;;10.90;40.66;98988.27;1749507;81;21095;-61
2022/01/07 02:42:32;;;;;;;3.10;2.15;;;;;;;10.84;40.49;98990.86;1758755;80;20968;-61
2022/01/07 02:44:59;;;;;;;2.72;2.33;;;;;;;10.79;40.24;98998.06;1726298;81;20947;-60
2022/01/07 02:47:30;;;;;;;3.05;2.50;;;;;;;10.80;40.05;98995.70;1733039;82;20947;-63
2022/01/07 02:49:53;;;;;;;3.72;2.35;;;;;;;10.82;39.86;99006.19;1763285;81;21590;-63
2022/01/07 02:52:20;;;;;;;2.92;2.60;;;;;;;10.83;39.63;99007.81;1775562;80;20975;-60
2022/01/07 02:54:46;;;;;;;2.37;2.05;;;;;;;10.86;39.45;99008.79;1778305;80;20931;-62
2022/01/07 02:57:13;;;;;;;3.02;2.08;;;;;;;10.87;39.19;99013.91;1778146;80;21480;-62
2022/01/07 02:59:39;;;;;;;2.55;2.33;;;;;;;10.86;39.10;99018.10;1776600;80;21017;-62
2022/01/07 03:02:05;;;;;;;2.47;1.98;;;;;;;10.85;38.94;99021.76;1772228;80;20879;-62
2022/01/07 03:04:32;;;;;;;2.65;1.77;;;;;;;10.84;38.77;99031.61;1816104;78;21138;-61
2022/01/07 03:06:58;;;;;;;1.80;1.70;;;;;;;10.86;38.61;99024.25;1824578;78;21210;-62
2022/01/07 03:09:25;;;;;;;2.70;2.08;;;;;;;10.81;38.55;99033.79;1820092;78;20926;-61
2022/01/07 03:11:51;;;;;;;2.05;1.52;;;;;;;10.81;38.33;99043.10;1819483;78;21008;-61
2022/01/07 03:14:19;;;;;;;2.37;1.75;;;;;;;10.81;38.17;99047.09;1814596;78;20919;-62
2022/01/07 03:16:47;;;;;;;1.90;1.65;;;;;;;10.82;38.03;99050.89;1779515;80;20982;-62
2022/01/07 03:19:14;;;;;;;1.85;1.67;;;;;;;10.80;37.90;99055.58;1766140;80;20993;-63
2022/01/07 03:21:40;;;;;;;2.22;1.75;;;;;;;10.76;37.75;99068.94;1807784;78;21014;-62
2022/01/07 03:24:07;;;;;;;2.00;1.50;;;;;;;10.74;37.44;99074.91;1767007;80;20955;-62
2022/01/07 03:26:33;;;;;;;2.67;1.77;;;;;;;10.69;37.22;99077.83;1813779;78;21414;-61
2022/01/07 03:29:00;;;;;;;1.98;1.47;;;;;;;10.68;36.96;99087.63;1818521;78;21147;-62
2022/01/07 03:31:26;;;;;;;2.00;1.72;;;;;;;10.65;36.73;99091.98;1809314;78;20970;-62
2022/01/07 03:33:52;;;;;;;2.33;1.60;;;;;;;10.59;36.51;99094.02;1813814;78;21499;-61
2022/01/07 03:36:20;;;;;;;3.25;1.65;;;;;;;10.47;36.40;99101.61;1780952;80;21001;-61
2022/01/07 03:38:46;;;;;;;2.15;1.70;;;;;;;10.39;36.43;99100.34;1782819;80;21496;-63
2022/01/07 03:41:12;;;;;;;2.42;2.22;;;;;;;10.35;36.47;99108.86;1775286;80;21196;-63
2022/01/07 03:43:39;;;;;;;3.12;2.17;;;;;;;10.30;36.57;99112.03;1776178;80;21075;-63
2022/01/07 03:46:05;;;;;;;2.80;1.67;;;;;;;10.24;36.61;99107.44;1779412;80;21041;-61
2022/01/07 03:48:33;;;;;;;2.17;1.95;;;;;;;10.20;36.58;99109.28;1783274;80;20891;-63
2022/01/07 03:50:59;;;;;;;2.50;1.90;;;;;;;10.19;36.43;99108.47;1764857;80;20939;-63
2022/01/07 03:53:26;;;;;;;2.58;1.90;;;;;;;10.18;36.43;99117.94;1759870;81;21203;-61
2022/01/07 03:55:53;;;;;;;2.92;1.70;;;;;;;10.11;36.46;99116.96;1732614;81;20919;-62
2022/01/07 03:58:20;;;;;;;1.60;1.40;;;;;;;10.07;36.48;99116.97;1752600;80;21468;-62
2022/01/07 04:00:46;;;;;;;1.92;1.35;;;;;;;10.03;36.43;99117.01;1743696;81;20931;-61
2022/01/07 04:03:15;;;;;;;3.00;1.70;;;;;;;9.94;36.44;99124.19;1753544;81;21585;-61
2022/01/07 04:05:41;;;;;;;1.85;1.67;;;;;;;9.90;36.50;99134.86;1747309;81;21135;-61
2022/01/07 04:08:08;;;;;;;2.15;1.90;;;;;;;9.85;36.63;99141.20;1743922;81;21621;-63
2022/01/07 04:10:34;;;;;;;3.83;2.25;;;;;;;9.81;36.76;99154.48;1724202;80;21009;-63
2022/01/07 04:13:01;;;;;;;2.52;1.85;;;;;;;9.76;36.88;99151.02;1746860;81;21470;-61
2022/01/07 04:15:28;;;;;;;3.30;1.90;;;;;;;9.74;36.98;99163.66;1750487;81;21041;-61
2022/01/07 04:17:55;;;;;;;3.65;1.57;;;;;;;9.78;36.95;99158.31;1740100;81;21087;-62
2022/01/07 04:20:25;;;;;;;3.35;1.90;;;;;;;9.83;36.87;99158.62;1731082;80;21104;-61
2022/01/07 04:22:51;;;;;;;3.15;1.98;;;;;;;9.84;36.94;99166.09;1738356;82;20943;-62
2022/01/07 04:25:18;;;;;;;2.33;1.82;;;;;;;9.88;37.00;99166.89;1743940;81;20951;-61
2022/01/07 04:27:52;;;;;;;2.25;1.60;;;;;;;9.94;36.99;99166.70;1726224;82;20987;-62
2022/01/07 04:30:20;;;;;;;2.35;1.80;;;;;;;9.98;36.93;99172.02;1724135;82;21835;-61
2022/01/07 04:32:48;;;;;;;3.75;2.00;;;;;;;9.97;37.00;99165.04;1744523;81;20935;-62
2022/01/07 04:35:15;;;;;;;2.70;1.70;;;;;;;9.95;36.87;99171.03;1723550;82;21084;-64
2022/01/07 04:37:42;;;;;;;2.92;1.70;;;;;;;9.93;36.86;99172.52;1750401;81;20932;-63
2022/01/07 04:40:10;;;;;;;3.17;2.20;;;;;;;9.94;36.78;99177.34;1757936;80;20963;-62
2022/01/07 04:42:37;;;;;;;3.15;2.10;;;;;;;9.92;36.76;99178.02;1746787;80;21871;-61
2022/01/07 04:45:05;;;;;;;2.65;1.72;;;;;;;9.88;36.73;99180.18;1749165;81;20944;-62
2022/01/07 04:47:35;;;;;;;2.30;1.72;;;;;;;9.90;36.59;99186.67;1756028;80;20907;-64
2022/01/07 04:50:07;;;;;;;1.82;1.52;;;;;;;9.85;36.56;99186.36;1749625;81;21508;-63
2022/01/07 04:52:33;;;;;;;1.85;1.55;;;;;;;9.81;36.54;99195.66;1762211;81;20955;-62
2022/01/07 04:54:59;;;;;;;2.02;1.55;;;;;;;9.73;36.55;99192.53;1760399;81;21183;-61
2022/01/07 04:57:26;;;;;;;2.42;1.70;;;;;;;9.68;36.52;99191.39;1755221;81;20896;-62
2022/01/07 04:59:52;;;;;;;3.87;1.72;;;;;;;9.61;36.50;99203.21;1759572;81;21553;-63
2022/01/07 05:02:22;;;;;;;3.83;2.10;;;;;;;9.60;36.46;99197.56;1744816;81;21115;-62
2022/01/07 05:04:48;;;;;;;2.77;2.00;;;;;;;9.54;36.49;99208.05;1756470;81;21503;-61
2022/01/07 05:07:16;;;;;;;3.08;2.00;;;;;;;9.45;36.54;99215.69;1749356;81;21116;-61
2022/01/07 05:09:43;;;;;;;2.30;1.87;;;;;;;9.39;36.54;99222.50;1741561;80;20983;-61
2022/01/07 05:12:10;;;;;;;2.90;1.95;;;;;;;9.29;36.67;99224.52;1753986;80;20991;-63
2022/01/07 05:14:36;;;;;;;2.42;1.77;;;;;;;9.25;36.67;99227.99;1760352;81;20971;-62
2022/01/07 05:17:04;;;;;;;2.22;1.60;;;;;;;9.20;36.70;99238.28;1722175;82;20892;-65
2022/01/07 05:19:31;;;;;;;2.65;2.17;;;;;;;9.16;36.76;99233.48;1760494;81;21150;-61
2022/01/07 05:21:57;;;;;;;2.22;1.80;;;;;;;9.12;36.77;99232.17;1751828;81;20876;-61
2022/01/07 05:24:23;;;;;;;3.60;2.30;;;;;;;9.10;36.79;99239.45;1751953;81;21111;-61
2022/01/07 05:26:50;;;;;;;4.87;2.30;;;;;;;9.07;36.86;99238.48;1756137;80;20995;-63
2022/01/07 05:29:17;;;;;;;3.65;2.20;;;;;;;9.07;36.91;99240.61;1737250;81;20903;-63
2022/01/07 05:31:44;;;;;;;4.42;2.17;;;;;;;9.05;36.91;99242.61;1749850;81;21999;-61
2022/01/07 05:34:10;;;;;;;1.92;1.60;;;;;;;8.99;36.96;99254.41;1758619;81;20947;-62
2022/01/07 05:36:38;;;;;;;2.12;1.77;;;;;;;8.94;37.02;99259.38;1720450;82;20931;-61
2022/01/07 05:39:05;;;;;;;2.70;1.80;;;;;;;8.90;37.02;99265.98;1754325;81;21022;-63
2022/01/07 05:41:33;;;;;;;3.37;1.82;;;;;;;8.83;37.10;99267.65;1742955;81;20966;-62
2022/01/07 05:43:59;;;;;;;2.30;1.50;;;;;;;8.80;37.06;99267.97;1735971;82;21581;-62
2022/01/07 05:46:25;;;;;;;2.58;1.40;;;;;;;8.80;37.00;99274.11;1739410;80;21054;-62
2022/01/07 05:48:51;;;;;;;2.17;1.35;;;;;;;8.77;37.02;99276.25;1722780;82;21072;-63
2022/01/07 05:51:18;;;;;;;3.87;1.35;;;;;;;8.71;37.01;99275.59;1778656;80;21607;-62
2022/01/07 05:53:44;;;;;;;2.33;1.57;;;;;;;8.66;37.04;99283.53;1742123;82;21009;-62
2022/01/07 05:56:11;;;;;;;3.08;1.47;;;;;;;8.63;37.06;99287.83;1735026;82;21171;-61
2022/01/07 05:58:38;;;;;;;2.33;1.50;;;;;;;8.64;37.05;99304.58;1769514;80;21724;-62
2022/01/07 06:01:05;;;;;;;2.75;1.62;;;;;;;8.59;37.07;99301.09;1792009;78;20943;-62
2022/01/07 06:03:33;;;;;;;5.53;1.70;;;;;;;8.55;37.07;99305.56;1766723;80;21042;-62
2022/01/07 06:05:59;;;;;;;3.05;1.67;;;;;;;8.53;37.02;99315.47;1764797;80;21025;-61
2022/01/07 06:08:25;;;;;;;2.72;2.15;;;;;;;8.57;36.97;99328.77;1809596;78;21797;-62
2022/01/07 06:10:52;;;;;;;2.80;2.02;;;;;;;8.55;37.04;99326.77;1767653;80;20943;-63
2022/01/07 06:13:20;;;;;;;2.27;1.82;;;;;;;8.61;37.05;99334.06;1799636;78;20915;-61
2022/01/07 06:15:46;;;;;;;2.98;1.47;;;;;;;8.67;37.02;99332.10;1759112;80;21006;-60
2022/01/07 06:18:12;;;;;;;2.00;1.40;;;;;;;8.70;36.93;99339.73;1764695;80;21005;-64
2022/01/07 06:20:39;;;;;;;2.90;1.50;;;;;;;8.73;36.77;99342.56;1800192;79;21850;-62
2022/01/07 06:23:05;;;;;;;1.72;1.30;;;;;;;8.77;36.56;99345.21;1804925;78;20965;-63
2022/01/07 06:25:32;;;;;;;2.30;1.27;;;;;;;8.77;36.38;99350.52;1765196;80;20917;-64
2022/01/07 06:27:58;;;;;;;1.60;1.22;;;;;;;8.80;36.27;99356.83;1765356;80;21590;-61
2022/01/07 06:30:25;;;;;;;3.67;1.60;;;;;;;8.94;36.08;99364.17;1802742;79;21464;-61
2022/01/07 06:32:52;;;;;;;2.02;1.17;;;;;;;9.06;35.98;99366.84;1796532;79;21116;-60
2022/01/07 06:35:18;;;;;;;1.65;1.27;;;;;;;9.16;35.75;99370.17;1802378;78;20950;-62
2022/01/07 06:37:45;;;;;;;2.67;1.37;;;;;;;9.16;35.51;99375.48;1773034;80;21497;-61
2022/01/07 06:40:11;;;;;;;1.90;1.20;;;;;;;9.17;35.44;99377.15;1742437;82;21001;-61
2022/01/07 06:42:38;;;;;;;3.80;1.55;;;;;;;9.19;35.39;99383.95;1752132;81;20998;-59
2022/01/07 06:45:06;;;;;;;2.17;1.80;;;;;;;9.20;35.42;99392.75;1764774;80;21399;-60
2022/01/07 06:47:34;;;;;;;3.00;1.72;;;;;;;9.24;35.37;99396.72;1771886;80;21298;-60
2022/01/07 06:50:01;;;;;;;2.08;1.30;;;;;;;9.28;35.25;99396.75;1775088;80;20979;-62
2022/01/07 06:52:28;;;;;;;1.87;1.15;;;;;;;9.27;35.21;99407.86;1782268;79;20903;-63
2022/01/07 06:54:55;;;;;;;2.25;1.47;;;;;;;9.24;35.22;99412.66;1773301;79;20839;-62
2022/01/07 06:57:21;;;;;;;2.17;1.30;;;;;;;9.18;35.25;99418.11;1772151;79;21135;-66
2022/01/07 06:59:48;;;;;;;2.58;1.55;;;;;;;9.18;35.32;99418.11;1774969;80;20975;-64
2022/01/07 07:02:14;;;;;;;2.02;1.67;;;;;;;9.15;35.43;99415.78;1774347;79;21357;-63
2022/01/07 07:04:41;;;;;;;2.30;1.50;;;;;;;9.28;35.66;99412.16;1740437;82;20986;-63
2022/01/07 07:07:08;;;;;;;2.62;1.80;;;;;;;9.75;35.94;99416.33;1768708;78;20990;-64
2022/01/07 07:09:34;;;;;;;4.00;2.37;;;;;;;10.52;35.65;99414.91;1766732;78;21938;-64
2022/01/07 07:12:00;;;;;;;4.87;2.95;;;;;;;11.39;34.81;99415.15;1772351;79;20891;-63
2022/01/07 07:14:27;;;;;;;7.67;3.62;;;;;;;12.27;33.89;99412.25;1775794;79;20942;-66
2022/01/07 07:16:53;;;;;;;5.40;3.15;;;;;;;13.22;32.77;99406.45;1773231;79;21005;-62
2022/01/07 07:19:21;;;;;;;5.28;3.15;;;;;;;14.03;31.50;99407.30;1762470;78;22292;-63
2022/01/07 07:21:48;;;;;;;3.35;2.47;;;;;;;14.82;30.56;99408.16;1775561;79;21806;-65
2022/01/07 07:24:14;;;;;;;3.62;2.22;;;;;;;15.53;29.30;99396.56;1771078;78;20935;-63
2022/01/07 07:26:40;;;;;;;4.55;2.72;;;;;;;16.09;28.56;99398.33;1771552;78;21473;-64
2022/01/07 07:29:07;;;;;;;3.80;2.52;;;;;;;16.76;27.76;99397.21;1777041;78;21036;-63
2022/01/07 07:31:38;;;;;;;3.22;1.90;;;;;;;17.49;26.99;99395.83;1740437;80;20990;-65
2022/01/07 07:36:44;;;;;;;2.60;1.90;;;;;;;18.37;25.52;99402.28;1698290;80;20997;-63
2022/01/07 07:39:11;;;;;;;3.98;2.40;;;;;;;18.72;24.70;99397.16;1775878;79;21007;-61
2022/01/07 07:41:39;;;;;;;4.92;3.02;;;;;;;18.92;24.29;99405.03;1776564;78;21084;-63
2022/01/07 07:44:06;;;;;;;3.87;2.42;;;;;;;18.86;23.82;99404.58;1774703;79;20879;-61
2022/01/07 07:46:35;;;;;;;3.52;2.05;;;;;;;18.85;23.74;99405.64;1778345;79;22387;-61
2022/01/07 07:49:04;;;;;;;2.90;1.65;;;;;;;18.95;23.49;99411.33;1772612;79;21430;-62
2022/01/07 07:51:31;;;;;;;3.60;1.77;;;;;;;19.05;23.36;99412.44;1770962;79;20943;-64
2022/01/07 07:53:57;;;;;;;2.92;1.90;;;;;;;19.30;23.33;99417.70;1746685;81;20949;-64
2022/01/07 07:56:25;;;;;;;3.27;1.82;;;;;;;19.87;23.01;99410.05;1727246;82;21010;-61
2022/01/07 07:58:52;;;;;;;3.52;2.12;;;;;;;20.42;22.53;99418.72;1725624;82;21881;-62
2022/01/07 08:01:19;;;;;;;11.68;6.50;;;;;;;20.67;22.15;99422.02;1767893;81;21006;-63
2022/01/07 08:03:46;;;;;;;4.03;2.90;;;;;;;20.80;21.81;99421.77;1725926;81;20951;-61
2022/01/07 08:06:12;;;;;;;3.42;2.25;;;;;;;20.46;21.62;99421.27;1760995;81;20931;-63
2022/01/07 08:08:39;;;;;;;4.70;2.25;;;;;;;20.03;21.86;99429.64;1725513;82;21543;-64
2022/01/07 08:11:10;;;;;;;4.15;2.00;;;;;;;19.80;22.10;99430.42;1753229;81;20852;-62
2022/01/07 08:16:06;;;;;;;3.55;2.58;;;;;;;19.17;22.31;99436.75;1695838;82;21497;-64
2022/01/07 08:18:37;;;;;;;3.15;2.20;;;;;;;18.92;22.37;99438.73;1738511;81;20931;-63
2022/01/07 08:21:11;;;;;;;3.30;2.20;;;;;;;18.64;22.66;99449.20;1764032;80;20931;-64
2022/01/07 08:23:40;;;;;;;2.40;1.77;;;;;;;18.55;22.73;99447.30;1762040;80;21168;-63
2022/01/07 08:26:09;;;;;;;3.17;2.00;;;;;;;18.38;22.62;99438.92;1737139;82;20880;-61
2022/01/07 08:28:41;;;;;;;2.92;1.60;;;;;;;18.46;22.90;99445.89;1764816;80;21618;-65
2022/01/07 08:36:25;;;;;;;2.22;1.60;;;;;;;19.36;22.26;99447.83;1760747;80;21244;-71
2022/01/07 08:38:55;;;;;;;3.02;1.65;;;;;;;19.62;21.74;99439.41;1758965;81;20979;-69
2022/01/07 08:41:23;;;;;;;2.20;1.62;;;;;;;19.77;21.54;99447.59;1761931;81;20935;-64
2022/01/07 08:43:50;;;;;;;3.15;1.87;;;;;;;20.08;21.35;99444.61;1761461;80;20900;-64
2022/01/07 08:46:16;;;;;;;3.20;1.67;;;;;;;20.42;21.08;99438.46;1765459;81;20911;-63
2022/01/07 08:48:43;;;;;;;2.58;1.55;;;;;;;20.72;20.70;99442.41;1762409;81;22326;-68
2022/01/07 08:51:10;;;;;;;2.60;1.55;;;;;;;20.89;20.38;99448.19;1750647;81;20966;-65
2022/01/07 08:53:36;;;;;;;6.15;1.90;;;;;;;21.03;20.28;99447.94;1732905;82;21551;-63
2022/01/07 08:56:05;;;;;;;3.70;1.57;;;;;;;21.09;20.21;99447.02;1738197;81;21013;-67
2022/01/07 08:58:33;;;;;;;3.30;2.37;;;;;;;21.11;19.96;99455.19;1751845;81;21002;-65
2022/01/07 09:01:01;;;;;;;6.78;1.90;;;;;;;20.91;20.00;99460.11;1744271;81;20978;-67
2022/01/07 09:03:28;;;;;;;9.73;2.10;;;;;;;20.89;20.08;99457.66;1744727;81;20982;-67
2022/01/07 09:05:54;;;;;;;3.55;1.87;;;;;;;20.84;20.22;99461.60;1737899;81;20969;-70
2022/01/07 09:08:22;;;;;;;3.47;2.35;;;;;;;20.73;20.23;99458.89;1749985;81;20934;-64
2022/01/07 09:10:48;;;;;;;2.80;2.27;;;;;;;20.52;20.35;99451.41;1740397;81;21077;-67
2022/01/07 09:13:16;;;;;;;3.50;2.70;;;;;;;20.44;20.48;99447.70;1732614;81;21389;-64
2022/01/07 09:15:43;;;;;;;3.55;2.65;;;;;;;20.52;20.34;99442.75;1716331;81;20968;-64
2022/01/07 09:18:12;;;;;;;5.35;2.77;;;;;;;20.60;20.37;99442.39;1750325;81;21030;-67
2022/01/07 09:20:40;;;;;;;4.67;3.00;;;;;;;20.84;20.27;99439.97;1735153;81;21059;-65
2022/01/07 09:23:06;;;;;;;6.40;2.90;;;;;;;21.12;20.03;99435.73;1744783;81;20978;-63
2022/01/07 09:25:32;;;;;;;3.47;3.17;;;;;;;21.36;19.76;99437.28;1743842;81;21166;-63
2022/01/07 09:27:59;;;;;;;4.22;3.45;;;;;;;21.54;19.63;99434.38;1745441;81;21014;-63
2022/01/07 09:30:25;;;;;;;4.97;3.02;;;;;;;21.75;19.53;99432.34;1736394;81;21094;-64
2022/01/07 09:32:52;;;;;;;5.47;3.17;;;;;;;22.01;19.14;99424.98;1791903;79;20917;-64
2022/01/07 09:35:19;;;;;;;4.45;2.60;;;;;;;22.14;18.99;99423.30;1793309;79;20931;-63
2022/01/07 09:37:45;;;;;;;3.85;2.58;;;;;;;22.22;18.68;99425.30;1785740;79;21952;-65
2022/01/07 09:40:12;;;;;;;5.10;2.70;;;;;;;22.30;18.53;99433.85;1795765;79;21466;-64
2022/01/07 09:43:00;;;;;;;4.47;2.47;;;;;;;22.42;18.34;99436.48;1735145;82;20943;-63
2022/01/07 09:45:27;;;;;;;3.27;2.77;;;;;;;22.54;18.12;99432.61;1738532;82;20955;-65
2022/01/07 09:47:53;;;;;;;4.30;2.92;;;;;;;22.47;18.12;99440.10;1738184;82;20946;-63
2022/01/07 09:50:20;;;;;;;3.22;2.67;;;;;;;22.48;18.18;99443.60;1763810;81;21138;-64
2022/01/07 09:52:47;;;;;;;2.90;2.47;;;;;;;22.45;18.19;99438.14;1750209;80;21475;-63
2022/01/07 09:55:13;;;;;;;3.27;2.95;;;;;;;22.48;18.17;99432.77;1802530;78;20986;-63
2022/01/07 09:57:40;;;;;;;4.92;3.00;;;;;;;22.47;18.21;99439.27;1792041;78;21038;-64
2022/01/07 10:00:08;;;;;;;4.40;3.35;;;;;;;22.44;18.32;99429.75;1795853;78;21437;-64
2022/01/07 10:02:36;;;;;;;5.25;3.40;;;;;;;22.27;18.33;99432.16;1774537;79;21872;-62
2022/01/07 10:05:15;;;;;;;4.50;3.67;;;;;;;22.19;18.47;99432.04;1795074;79;20920;-62
2022/01/07 10:07:42;;;;;;;4.20;3.62;;;;;;;22.20;18.52;99441.00;1806747;79;20999;-63
2022/01/07 10:10:14;;;;;;;6.67;4.87;;;;;;;21.94;18.34;99449.23;1800491;78;20871;-61
2022/01/07 10:13:06;;;;;;;3.58;3.20;;;;;;;21.51;18.54;99451.09;1802687;78;20973;-64
2022/01/07 10:15:32;;;;;;;5.37;3.60;;;;;;;21.25;18.78;99448.95;1787234;79;21130;-61
2022/01/07 10:18:06;;;;;;;4.05;3.62;;;;;;;20.93;19.14;99461.52;1806185;78;20981;-61
2022/01/07 10:20:44;;;;;;;4.40;3.40;;;;;;;20.80;19.29;99459.61;1801336;78;20945;-62
2022/01/07 10:23:14;;;;;;;3.45;3.15;;;;;;;20.65;19.49;99461.98;1799489;78;20939;-61
2022/01/07 10:25:46;;;;;;;6.60;4.40;;;;;;;20.45;19.46;99469.06;1802239;78;20915;-62
2022/01/07 10:28:17;;;;;;;8.58;4.30;;;;;;;20.14;19.73;99470.18;1801416;79;21145;-60
2022/01/07 10:30:52;;;;;;;5.95;4.22;;;;;;;19.82;19.82;99473.36;1805770;79;21477;-62
2022/01/07 10:33:23;;;;;;;4.80;3.52;;;;;;;19.35;20.17;99476.36;1804458;78;21029;-64
2022/01/07 10:35:52;;;;;;;4.75;3.37;;;;;;;18.86;20.65;99475.48;1799281;78;20926;-61
2022/01/07 10:38:24;;;;;;;4.35;3.25;;;;;;;18.45;20.99;99473.89;1801022;79;21380;-62
2022/01/07 10:40:53;;;;;;;6.55;3.27;;;;;;;18.08;21.29;99464.88;1801267;78;21135;-64
2022/01/07 10:43:30;;;;;;;4.67;4.25;;;;;;;17.87;21.67;99467.41;1796536;78;21492;-61
2022/01/07 10:46:11;;;;;;;4.90;3.00;;;;;;;17.79;22.01;99474.91;1803975;79;20915;-63
2022/01/07 10:48:53;;;;;;;2.50;2.15;;;;;;;17.62;22.06;99477.30;1800573;79;20990;-66
2022/01/07 10:51:27;;;;;;;4.87;2.52;;;;;;;17.58;22.08;99478.75;1789234;79;21547;-71
2022/01/07 10:54:06;;;;;;;4.10;2.47;;;;;;;17.56;22.13;99482.19;1786482;79;21147;-64
2022/01/07 10:56:43;;;;;;;3.45;2.87;;;;;;;17.53;22.83;99487.16;1796420;79;20954;-63
2022/01/07 10:59:15;;;;;;;3.45;1.92;;;;;;;17.44;22.72;99492.46;1787281;79;21030;-61
2022/01/07 11:01:56;;;;;;;3.30;2.35;;;;;;;17.31;22.75;99492.00;1787844;79;21047;-66
2022/01/07 11:04:32;;;;;;;4.40;2.30;;;;;;;17.31;23.15;99485.28;1794883;79;21458;-65
2022/01/07 11:07:02;;;;;;;4.40;2.27;;;;;;;17.23;22.79;99489.01;1797309;79;21137;-64
2022/01/07 11:09:27;;;;;;;5.03;2.55;;;;;;;17.10;22.90;99490.40;1798676;79;20970;-67
2022/01/07 11:11:57;;;;;;;4.90;2.60;;;;;;;17.03;23.03;99488.77;1793413;79;20982;-66
2022/01/07 11:14:26;;;;;;;4.12;2.55;;;;;;;16.89;23.18;99484.48;1781228;79;21072;-70
2022/01/07 11:16:57;;;;;;;6.03;3.08;;;;;;;16.70;23.39;99486.69;1785756;79;20999;-69
2022/01/07 11:19:28;;;;;;;4.62;2.55;;;;;;;16.36;23.49;99481.84;1792712;79;21081;-69
2022/01/07 11:21:55;;;;;;;3.45;2.55;;;;;;;15.95;23.84;99483.37;1790513;79;21008;-67
2022/01/07 11:24:35;;;;;;;4.03;2.60;;;;;;;15.65;24.10;99490.11;1790137;79;20950;-71
2022/01/07 11:27:08;;;;;;;4.37;2.15;;;;;;;15.41;24.36;99489.27;1789278;79;21048;-66
2022/01/07 11:29:38;;;;;;;3.45;2.52;;;;;;;15.22;24.48;99495.41;1784450;78;21875;-66
2022/01/07 11:32:31;;;;;;;3.15;2.60;;;;;;;15.04;24.64;99501.30;1787321;78;21775;-65
2022/01/07 11:35:23;;;;;;;5.60;2.70;;;;;;;15.02;24.86;99506.51;1788282;79;21049;-67
2022/01/07 11:37:54;;;;;;;3.75;2.33;;;;;;;14.99;25.05;99505.59;1781004;79;20958;-65
2022/01/07 11:40:33;;;;;;;5.83;2.65;;;;;;;15.14;25.93;99503.09;1786674;79;21043;-64
2022/01/07 11:43:08;;;;;;;4.58;2.15;;;;;;;15.32;26.26;99496.69;1797422;79;21576;-65
2022/01/07 11:45:38;;;;;;;2.47;1.92;;;;;;;15.26;25.74;99504.17;1789412;79;21370;-72
2022/01/07 11:48:16;;;;;;;3.85;2.17;;;;;;;15.16;25.58;99501.04;1790320;79;21051;-78
2022/01/07 11:51:03;;;;;;;2.42;1.85;;;;;;;15.10;25.52;99505.01;1787902;79;21046;-64